sensor_id;sensor_type;location;lat;lon;timestamp;pressure;altitude;pressure_sealevel;temperature;humidity
57779;BME280;43608;49.486;9.640;2023-04-06T00:00:17;98995.84;;;-1.73;75.04
57779;BME280;43608;49.486;9.640;2023-04-06T00:00:48;99021.78;;;-1.57;74.82
57779;BME280;43608;49.486;9.640;2023-04-06T00:01:19;99011.25;;;-1.60;74.78
57779;BME280;43608;49.486;9.640;2023-04-06T00:01:49;99015.41;;;-1.63;74.93
57779;BME280;43608;49.486;9.640;2023-04-06T00:02:20;99021.53;;;-1.61;74.85
57779;BME280;43608;49.486;9.640;2023-04-06T00:02:50;99010.94;;;-1.66;75.07
57779;BME280;43608;49.486;9.640;2023-04-06T00:03:22;99021.47;;;-1.63;74.96
57779;BME280;43608;49.486;9.640;2023-04-06T00:03:52;99009.00;;;-1.70;75.09
57779;BME280;43608;49.486;9.640;2023-04-06T00:04:22;99024.06;;;-1.63;74.89
57779;BME280;43608;49.486;9.640;2023-04-06T00:04:53;99023.13;;;-1.65;75.11
57779;BME280;43608;49.486;9.640;2023-04-06T00:05:23;99022.16;;;-1.67;75.06
57779;BME280;43608;49.486;9.640;2023-04-06T00:05:54;99019.63;;;-1.66;75.13
57779;BME280;43608;49.486;9.640;2023-04-06T00:06:25;98982.09;;;-1.89;75.06
57779;BME280;43608;49.486;9.640;2023-04-06T00:06:56;99013.16;;;-1.74;75.18
57779;BME280;43608;49.486;9.640;2023-04-06T00:07:27;99015.03;;;-1.71;75.35
57779;BME280;43608;49.486;9.640;2023-04-06T00:07:58;99013.16;;;-1.74;75.24
57779;BME280;43608;49.486;9.640;2023-04-06T00:08:28;99020.34;;;-1.68;75.19
57779;BME280;43608;49.486;9.640;2023-04-06T00:09:00;99016.81;;;-1.70;75.20
57779;BME280;43608;49.486;9.640;2023-04-06T00:09:30;99014.78;;;-1.76;75.21
57779;BME280;43608;49.486;9.640;2023-04-06T00:10:02;99000.66;;;-1.81;75.23
57779;BME280;43608;49.486;9.640;2023-04-06T00:10:32;99018.44;;;-1.72;75.22
57779;BME280;43608;49.486;9.640;2023-04-06T00:11:03;99008.56;;;-1.79;75.19
57779;BME280;43608;49.486;9.640;2023-04-06T00:11:33;99022.75;;;-1.73;75.37
57779;BME280;43608;49.486;9.640;2023-04-06T00:12:04;99015.75;;;-1.74;75.34
57779;BME280;43608;49.486;9.640;2023-04-06T00:12:34;99025.25;;;-1.74;75.45
57779;BME280;43608;49.486;9.640;2023-04-06T00:13:05;99011.06;;;-1.81;75.27
57779;BME280;43608;49.486;9.640;2023-04-06T00:13:36;98993.31;;;-1.90;75.38
57779;BME280;43608;49.486;9.640;2023-04-06T00:14:07;98990.63;;;-1.91;75.45
57779;BME280;43608;49.486;9.640;2023-04-06T00:14:37;99015.63;;;-1.77;75.28
57779;BME280;43608;49.486;9.640;2023-04-06T00:15:08;99002.06;;;-1.88;75.44
57779;BME280;43608;49.486;9.640;2023-04-06T00:15:38;99018.84;;;-1.81;75.45
57779;BME280;43608;49.486;9.640;2023-04-06T00:16:09;99016.25;;;-1.81;74.92
57779;BME280;43608;49.486;9.640;2023-04-06T00:16:40;99004.66;;;-1.88;75.10
57779;BME280;43608;49.486;9.640;2023-04-06T00:17:10;99017.97;;;-1.81;75.08
57779;BME280;43608;49.486;9.640;2023-04-06T00:17:41;99009.94;;;-1.86;75.08
57779;BME280;43608;49.486;9.640;2023-04-06T00:18:11;99014.25;;;-1.87;75.03
57779;BME280;43608;49.486;9.640;2023-04-06T00:18:42;99007.94;;;-1.92;74.79
57779;BME280;43608;49.486;9.640;2023-04-06T00:19:12;99009.78;;;-1.89;74.99
57779;BME280;43608;49.486;9.640;2023-04-06T00:19:43;99003.47;;;-1.94;74.73
57779;BME280;43608;49.486;9.640;2023-04-06T00:20:13;99011.56;;;-1.88;74.68
57779;BME280;43608;49.486;9.640;2023-04-06T00:20:44;99015.88;;;-1.89;75.21
57779;BME280;43608;49.486;9.640;2023-04-06T00:21:14;99012.25;;;-1.92;74.74
57779;BME280;43608;49.486;9.640;2023-04-06T00:21:45;98990.84;;;-2.05;74.72
57779;BME280;43608;49.486;9.640;2023-04-06T00:22:15;98995.16;;;-2.05;74.79
57779;BME280;43608;49.486;9.640;2023-04-06T00:22:46;99004.06;;;-2.00;74.83
57779;BME280;43608;49.486;9.640;2023-04-06T00:23:16;99007.53;;;-2.00;74.94
57779;BME280;43608;49.486;9.640;2023-04-06T00:23:47;99013.63;;;-1.99;75.07
57779;BME280;43608;49.486;9.640;2023-04-06T00:24:17;99010.94;;;-2.01;74.93
57779;BME280;43608;49.486;9.640;2023-04-06T00:24:48;99014.44;;;-2.00;74.75
57779;BME280;43608;49.486;9.640;2023-04-06T00:25:18;99010.06;;;-2.01;75.12
57779;BME280;43608;49.486;9.640;2023-04-06T00:25:49;99012.59;;;-2.03;75.24
57779;BME280;43608;49.486;9.640;2023-04-06T00:26:19;99013.53;;;-2.01;74.95
57779;BME280;43608;49.486;9.640;2023-04-06T00:26:50;99005.28;;;-2.10;75.00
57779;BME280;43608;49.486;9.640;2023-04-06T00:27:20;99021.25;;;-2.02;74.92
57779;BME280;43608;49.486;9.640;2023-04-06T00:27:51;99010.56;;;-2.08;74.93
57779;BME280;43608;49.486;9.640;2023-04-06T00:28:22;99009.81;;;-2.06;75.08
57779;BME280;43608;49.486;9.640;2023-04-06T00:28:55;99010.66;;;-2.07;75.03
57779;BME280;43608;49.486;9.640;2023-04-06T00:29:26;98995.41;;;-2.17;75.34
57779;BME280;43608;49.486;9.640;2023-04-06T00:29:56;99008.69;;;-2.11;75.12
57779;BME280;43608;49.486;9.640;2023-04-06T00:30:27;99009.75;;;-2.07;75.27
57779;BME280;43608;49.486;9.640;2023-04-06T00:30:57;99011.47;;;-2.08;75.14
57779;BME280;43608;49.486;9.640;2023-04-06T00:31:28;98993.56;;;-2.20;75.02
57779;BME280;43608;49.486;9.640;2023-04-06T00:31:58;99011.22;;;-2.12;75.39
57779;BME280;43608;49.486;9.640;2023-04-06T00:32:29;98994.28;;;-2.22;75.43
57779;BME280;43608;49.486;9.640;2023-04-06T00:32:59;99010.41;;;-2.11;75.67
57779;BME280;43608;49.486;9.640;2023-04-06T00:33:30;99007.75;;;-2.13;75.39
57779;BME280;43608;49.486;9.640;2023-04-06T00:34:01;99006.94;;;-2.12;75.33
57779;BME280;43608;49.486;9.640;2023-04-06T00:34:31;99008.63;;;-2.12;75.57
57779;BME280;43608;49.486;9.640;2023-04-06T00:35:03;98982.78;;;-2.27;75.26
57779;BME280;43608;49.486;9.640;2023-04-06T00:35:34;99010.41;;;-2.11;75.74
57779;BME280;43608;49.486;9.640;2023-04-06T00:36:04;98995.16;;;-2.22;75.59
57779;BME280;43608;49.486;9.640;2023-04-06T00:36:38;98982.78;;;-2.27;75.63
57779;BME280;43608;49.486;9.640;2023-04-06T00:37:11;99018.06;;;-2.14;75.69
57779;BME280;43608;49.486;9.640;2023-04-06T00:37:42;99002.31;;;-2.18;75.53
57779;BME280;43608;49.486;9.640;2023-04-06T00:38:13;98997.03;;;-2.19;75.46
57779;BME280;43608;49.486;9.640;2023-04-06T00:38:47;98995.31;;;-2.19;75.50
57779;BME280;43608;49.486;9.640;2023-04-06T00:39:17;99002.22;;;-2.19;75.63
57779;BME280;43608;49.486;9.640;2023-04-06T00:39:48;99005.81;;;-2.17;75.16
57779;BME280;43608;49.486;9.640;2023-04-06T00:40:18;98988.91;;;-2.25;75.35
57779;BME280;43608;49.486;9.640;2023-04-06T00:40:49;98993.44;;;-2.21;75.34
57779;BME280;43608;49.486;9.640;2023-04-06T00:41:20;98996.78;;;-2.24;75.13
57779;BME280;43608;49.486;9.640;2023-04-06T00:41:51;98997.75;;;-2.22;75.23
57779;BME280;43608;49.486;9.640;2023-04-06T00:42:23;99005.63;;;-2.20;75.26
57779;BME280;43608;49.486;9.640;2023-04-06T00:42:56;98994.19;;;-2.24;75.13
57779;BME280;43608;49.486;9.640;2023-04-06T00:43:27;98975.53;;;-2.33;75.24
57779;BME280;43608;49.486;9.640;2023-04-06T00:43:57;98992.25;;;-2.28;75.39
57779;BME280;43608;49.486;9.640;2023-04-06T00:44:28;98989.91;;;-2.23;75.53
57779;BME280;43608;49.486;9.640;2023-04-06T00:44:59;99002.88;;;-2.23;75.53
57779;BME280;43608;49.486;9.640;2023-04-06T00:45:30;98993.06;;;-2.29;75.54
57779;BME280;43608;49.486;9.640;2023-04-06T00:46:01;99000.22;;;-2.25;75.94
57779;BME280;43608;49.486;9.640;2023-04-06T00:46:31;98990.56;;;-2.27;75.88
57779;BME280;43608;49.486;9.640;2023-04-06T00:47:01;98995.84;;;-2.26;76.04
57779;BME280;43608;49.486;9.640;2023-04-06T00:47:33;98999.31;;;-2.25;75.90
57779;BME280;43608;49.486;9.640;2023-04-06T00:48:03;98973.69;;;-2.36;76.05
57779;BME280;43608;49.486;9.640;2023-04-06T00:48:35;99001.03;;;-2.26;76.04
57779;BME280;43608;49.486;9.640;2023-04-06T00:49:05;98964.47;;;-2.47;75.84
57779;BME280;43608;49.486;9.640;2023-04-06T00:49:36;98999.22;;;-2.27;76.22
57779;BME280;43608;49.486;9.640;2023-04-06T00:50:06;98963.75;;;-2.44;76.27
57779;BME280;43608;49.486;9.640;2023-04-06T00:50:37;98985.78;;;-2.36;76.48
57779;BME280;43608;49.486;9.640;2023-04-06T00:51:07;98992.91;;;-2.32;76.26
57779;BME280;43608;49.486;9.640;2023-04-06T00:51:38;98974.41;;;-2.38;76.41
57779;BME280;43608;49.486;9.640;2023-04-06T00:52:08;98986.72;;;-2.34;76.48
57779;BME280;43608;49.486;9.640;2023-04-06T00:52:39;98989.31;;;-2.34;76.45
57779;BME280;43608;49.486;9.640;2023-04-06T00:53:09;98991.19;;;-2.32;76.65
57779;BME280;43608;49.486;9.640;2023-04-06T00:53:40;98993.78;;;-2.32;76.78
57779;BME280;43608;49.486;9.640;2023-04-06T00:54:10;98984.97;;;-2.35;76.65
57779;BME280;43608;49.486;9.640;2023-04-06T00:54:41;98959.91;;;-2.51;76.61
57779;BME280;43608;49.486;9.640;2023-04-06T00:55:11;98987.50;;;-2.37;76.65
57779;BME280;43608;49.486;9.640;2023-04-06T00:55:42;98992.84;;;-2.34;76.94
57779;BME280;43608;49.486;9.640;2023-04-06T00:56:12;98992.75;;;-2.35;76.88
57779;BME280;43608;49.486;9.640;2023-04-06T00:56:43;98988.44;;;-2.35;76.52
57779;BME280;43608;49.486;9.640;2023-04-06T00:57:14;98967.88;;;-2.48;76.84
57779;BME280;43608;49.486;9.640;2023-04-06T00:57:44;98994.44;;;-2.36;77.00
57779;BME280;43608;49.486;9.640;2023-04-06T00:58:15;98991.78;;;-2.37;76.91
57779;BME280;43608;49.486;9.640;2023-04-06T00:58:46;98996.97;;;-2.37;76.83
57779;BME280;43608;49.486;9.640;2023-04-06T00:59:16;98984.50;;;-2.44;76.85
57779;BME280;43608;49.486;9.640;2023-04-06T00:59:47;98985.53;;;-2.41;76.82
57779;BME280;43608;49.486;9.640;2023-04-06T01:00:18;98985.53;;;-2.41;76.95
57779;BME280;43608;49.486;9.640;2023-04-06T01:00:48;98966.75;;;-2.53;76.78
57779;BME280;43608;49.486;9.640;2023-04-06T01:01:19;98990.81;;;-2.39;77.05
57779;BME280;43608;49.486;9.640;2023-04-06T01:01:49;98987.09;;;-2.44;76.95
57779;BME280;43608;49.486;9.640;2023-04-06T01:02:20;98984.66;;;-2.41;76.93
57779;BME280;43608;49.486;9.640;2023-04-06T01:02:50;98986.25;;;-2.43;76.64
57779;BME280;43608;49.486;9.640;2023-04-06T01:03:21;98982.63;;;-2.47;76.71
57779;BME280;43608;49.486;9.640;2023-04-06T01:03:52;98978.81;;;-2.54;76.91
57779;BME280;43608;49.486;9.640;2023-04-06T01:04:22;98980.84;;;-2.48;76.50
57779;BME280;43608;49.486;9.640;2023-04-06T01:04:53;98989.69;;;-2.44;76.98
57779;BME280;43608;49.486;9.640;2023-04-06T01:05:24;98963.91;;;-2.58;76.89
57779;BME280;43608;49.486;9.640;2023-04-06T01:05:55;98978.72;;;-2.55;76.83
57779;BME280;43608;49.486;9.640;2023-04-06T01:06:28;98988.72;;;-2.46;76.89
57779;BME280;43608;49.486;9.640;2023-04-06T01:06:59;98985.25;;;-2.47;76.91
57779;BME280;43608;49.486;9.640;2023-04-06T01:07:30;98986.03;;;-2.48;77.06
57779;BME280;43608;49.486;9.640;2023-04-06T01:08:00;98969.88;;;-2.59;77.04
57779;BME280;43608;49.486;9.640;2023-04-06T01:08:31;98977.13;;;-2.53;77.13
57779;BME280;43608;49.486;9.640;2023-04-06T01:09:02;98979.88;;;-2.50;76.96
57779;BME280;43608;49.486;9.640;2023-04-06T01:09:32;98976.22;;;-2.54;77.26
57779;BME280;43608;49.486;9.640;2023-04-06T01:10:03;98978.66;;;-2.57;77.20
57779;BME280;43608;49.486;9.640;2023-04-06T01:10:34;98980.53;;;-2.54;77.46
57779;BME280;43608;49.486;9.640;2023-04-06T01:11:04;98980.53;;;-2.54;77.27
57779;BME280;43608;49.486;9.640;2023-04-06T01:11:35;98966.28;;;-2.62;77.50
57779;BME280;43608;49.486;9.640;2023-04-06T01:12:06;98976.94;;;-2.56;77.16
57779;BME280;43608;49.486;9.640;2023-04-06T01:12:36;98944.84;;;-2.75;77.68
57779;BME280;43608;49.486;9.640;2023-04-06T01:13:08;98932.13;;;-2.87;77.42
57779;BME280;43608;49.486;9.640;2023-04-06T01:13:39;98955.41;;;-2.72;77.65
57779;BME280;43608;49.486;9.640;2023-04-06T01:14:09;98979.38;;;-2.59;77.72
57779;BME280;43608;49.486;9.640;2023-04-06T01:14:40;98984.72;;;-2.56;77.34
57779;BME280;43608;49.486;9.640;2023-04-06T01:15:11;98956.44;;;-2.68;77.46
57779;BME280;43608;49.486;9.640;2023-04-06T01:15:42;98967.72;;;-2.68;77.54
57779;BME280;43608;49.486;9.640;2023-04-06T01:16:13;98974.06;;;-2.62;77.60
57779;BME280;43608;49.486;9.640;2023-04-06T01:16:43;98978.59;;;-2.58;77.53
57779;BME280;43608;49.486;9.640;2023-04-06T01:17:14;98977.53;;;-2.62;77.74
57779;BME280;43608;49.486;9.640;2023-04-06T01:17:44;98979.38;;;-2.59;77.66
57779;BME280;43608;49.486;9.640;2023-04-06T01:18:15;98966.75;;;-2.70;77.83
57779;BME280;43608;49.486;9.640;2023-04-06T01:18:45;98983.59;;;-2.61;77.63
57779;BME280;43608;49.486;9.640;2023-04-06T01:19:16;98970.13;;;-2.71;77.60
57779;BME280;43608;49.486;9.640;2023-04-06T01:19:46;98981.00;;;-2.61;77.76
57779;BME280;43608;49.486;9.640;2023-04-06T01:20:19;98967.66;;;-2.69;77.41
57779;BME280;43608;49.486;9.640;2023-04-06T01:20:49;98963.91;;;-2.74;77.56
57779;BME280;43608;49.486;9.640;2023-04-06T01:21:20;98962.94;;;-2.76;77.72
57779;BME280;43608;49.486;9.640;2023-04-06T01:21:50;98955.00;;;-2.79;77.78
57779;BME280;43608;49.486;9.640;2023-04-06T01:22:24;98982.63;;;-2.63;78.00
57779;BME280;43608;49.486;9.640;2023-04-06T01:22:54;98955.97;;;-2.77;77.96
57779;BME280;43608;49.486;9.640;2023-04-06T01:23:24;98960.34;;;-2.76;77.62
57779;BME280;43608;49.486;9.640;2023-04-06T01:23:55;98979.91;;;-2.67;77.91
57779;BME280;43608;49.486;9.640;2023-04-06T01:24:25;98980.78;;;-2.66;77.84
57779;BME280;43608;49.486;9.640;2023-04-06T01:24:56;98959.53;;;-2.75;77.78
57779;BME280;43608;49.486;9.640;2023-04-06T01:25:26;98963.00;;;-2.75;78.01
57779;BME280;43608;49.486;9.640;2023-04-06T01:25:57;98971.78;;;-2.73;77.77
57779;BME280;43608;49.486;9.640;2023-04-06T01:26:27;98972.84;;;-2.69;77.98
57779;BME280;43608;49.486;9.640;2023-04-06T01:26:59;98920.22;;;-3.00;78.01
57779;BME280;43608;49.486;9.640;2023-04-06T01:27:31;98956.63;;;-2.82;77.78
57779;BME280;43608;49.486;9.640;2023-04-06T01:28:01;98966.41;;;-2.76;77.78
57779;BME280;43608;49.486;9.640;2023-04-06T01:28:31;98965.59;;;-2.75;77.98
57779;BME280;43608;49.486;9.640;2023-04-06T01:29:02;98968.13;;;-2.76;77.98
57779;BME280;43608;49.486;9.640;2023-04-06T01:29:33;98976.91;;;-2.74;77.90
57779;BME280;43608;49.486;9.640;2023-04-06T01:30:04;98957.50;;;-2.81;78.17
57779;BME280;43608;49.486;9.640;2023-04-06T01:30:34;98969.09;;;-2.74;78.23
57779;BME280;43608;49.486;9.640;2023-04-06T01:31:06;98960.09;;;-2.81;78.27
57779;BME280;43608;49.486;9.640;2023-04-06T01:31:38;98951.91;;;-2.89;78.13
57779;BME280;43608;49.486;9.640;2023-04-06T01:32:08;98976.91;;;-2.74;77.90
57779;BME280;43608;49.486;9.640;2023-04-06T01:32:39;98965.38;;;-2.79;78.03
57779;BME280;43608;49.486;9.640;2023-04-06T01:33:10;98973.38;;;-2.75;78.20
57779;BME280;43608;49.486;9.640;2023-04-06T01:33:40;98953.88;;;-2.85;77.95
57779;BME280;43608;49.486;9.640;2023-04-06T01:34:11;98964.47;;;-2.80;78.39
57779;BME280;43608;49.486;9.640;2023-04-06T01:34:41;98961.81;;;-2.82;78.26
57779;BME280;43608;49.486;9.640;2023-04-06T01:35:11;98949.94;;;-2.93;77.88
57779;BME280;43608;49.486;9.640;2023-04-06T01:35:42;98970.66;;;-2.78;78.10
57779;BME280;43608;49.486;9.640;2023-04-06T01:36:12;98968.84;;;-2.79;77.99
57779;BME280;43608;49.486;9.640;2023-04-06T01:36:43;98953.75;;;-2.86;78.19
57779;BME280;43608;49.486;9.640;2023-04-06T01:37:13;98962.59;;;-2.83;78.37
57779;BME280;43608;49.486;9.640;2023-04-06T01:37:44;98968.78;;;-2.80;78.14
57779;BME280;43608;49.486;9.640;2023-04-06T01:38:15;98964.31;;;-2.83;78.01
57779;BME280;43608;49.486;9.640;2023-04-06T01:38:46;98967.78;;;-2.83;78.31
57779;BME280;43608;49.486;9.640;2023-04-06T01:39:16;98965.94;;;-2.85;78.16
57779;BME280;43608;49.486;9.640;2023-04-06T01:39:47;98953.38;;;-2.94;78.31
57779;BME280;43608;49.486;9.640;2023-04-06T01:40:17;98966.00;;;-2.84;78.53
57779;BME280;43608;49.486;9.640;2023-04-06T01:40:48;98965.03;;;-2.86;78.23
57779;BME280;43608;49.486;9.640;2023-04-06T01:41:18;98943.72;;;-2.96;78.20
57779;BME280;43608;49.486;9.640;2023-04-06T01:41:48;98968.53;;;-2.85;78.17
57779;BME280;43608;49.486;9.640;2023-04-06T01:42:19;98952.41;;;-2.96;78.47
57779;BME280;43608;49.486;9.640;2023-04-06T01:42:50;98966.56;;;-2.89;78.21
57779;BME280;43608;49.486;9.640;2023-04-06T01:43:20;98946.22;;;-2.98;78.18
57779;BME280;43608;49.486;9.640;2023-04-06T01:43:50;98967.47;;;-2.89;78.26
57779;BME280;43608;49.486;9.640;2023-04-06T01:44:24;98943.41;;;-3.03;78.30
57779;BME280;43608;49.486;9.640;2023-04-06T01:44:55;98953.28;;;-2.95;78.36
57779;BME280;43608;49.486;9.640;2023-04-06T01:45:25;98943.41;;;-3.03;78.36
57779;BME280;43608;49.486;9.640;2023-04-06T01:45:56;98943.41;;;-3.03;78.23
57779;BME280;43608;49.486;9.640;2023-04-06T01:46:26;98942.34;;;-3.06;78.16
57779;BME280;43608;49.486;9.640;2023-04-06T01:46:57;98944.13;;;-3.05;77.98
57779;BME280;43608;49.486;9.640;2023-04-06T01:47:27;98932.63;;;-3.10;78.12
57779;BME280;43608;49.486;9.640;2023-04-06T01:47:57;98952.13;;;-3.01;77.89
57779;BME280;43608;49.486;9.640;2023-04-06T01:48:28;98949.31;;;-3.05;78.08
57779;BME280;43608;49.486;9.640;2023-04-06T01:48:58;98943.22;;;-3.06;77.91
57779;BME280;43608;49.486;9.640;2023-04-06T01:49:29;98968.75;;;-2.97;77.73
57779;BME280;43608;49.486;9.640;2023-04-06T01:49:59;98962.50;;;-3.01;78.25
57779;BME280;43608;49.486;9.640;2023-04-06T01:50:30;98946.66;;;-3.07;78.10
57779;BME280;43608;49.486;9.640;2023-04-06T01:51:00;98967.81;;;-2.99;78.04
57779;BME280;43608;49.486;9.640;2023-04-06T01:51:31;98947.44;;;-3.08;78.25
57779;BME280;43608;49.486;9.640;2023-04-06T01:52:01;98957.16;;;-3.04;78.04
57779;BME280;43608;49.486;9.640;2023-04-06T01:52:35;98966.00;;;-3.00;78.27
57779;BME280;43608;49.486;9.640;2023-04-06T01:53:05;98943.78;;;-3.11;78.23
57779;BME280;43608;49.486;9.640;2023-04-06T01:53:36;98938.25;;;-3.18;78.10
57779;BME280;43608;49.486;9.640;2023-04-06T01:54:06;98962.44;;;-3.02;78.30
57779;BME280;43608;49.486;9.640;2023-04-06T01:54:36;98927.59;;;-3.24;78.47
57779;BME280;43608;49.486;9.640;2023-04-06T01:55:07;98949.97;;;-3.09;78.21
57779;BME280;43608;49.486;9.640;2023-04-06T01:55:37;98964.06;;;-3.04;78.27
57779;BME280;43608;49.486;9.640;2023-04-06T01:56:08;98963.88;;;-3.07;78.44
57779;BME280;43608;49.486;9.640;2023-04-06T01:56:38;98959.69;;;-3.05;78.35
57779;BME280;43608;49.486;9.640;2023-04-06T01:57:10;98951.41;;;-3.14;78.42
57779;BME280;43608;49.486;9.640;2023-04-06T01:57:40;98954.16;;;-3.11;78.58
57779;BME280;43608;49.486;9.640;2023-04-06T01:58:11;98961.28;;;-3.07;78.69
57779;BME280;43608;49.486;9.640;2023-04-06T01:58:42;98967.38;;;-3.07;78.74
57779;BME280;43608;49.486;9.640;2023-04-06T01:59:12;98963.88;;;-3.07;78.98
57779;BME280;43608;49.486;9.640;2023-04-06T01:59:43;98962.09;;;-3.08;79.01
57779;BME280;43608;49.486;9.640;2023-04-06T02:00:14;98944.53;;;-3.14;78.88
57779;BME280;43608;49.486;9.640;2023-04-06T02:00:44;98948.72;;;-3.16;78.87
57779;BME280;43608;49.486;9.640;2023-04-06T02:01:15;98943.38;;;-3.19;78.81
57779;BME280;43608;49.486;9.640;2023-04-06T02:01:45;98959.28;;;-3.13;78.83
57779;BME280;43608;49.486;9.640;2023-04-06T02:02:15;98960.34;;;-3.09;78.76
57779;BME280;43608;49.486;9.640;2023-04-06T02:02:46;98941.50;;;-3.22;78.66
57779;BME280;43608;49.486;9.640;2023-04-06T02:03:16;98955.94;;;-3.10;78.88
57779;BME280;43608;49.486;9.640;2023-04-06T02:03:47;98953.28;;;-3.12;78.58
57779;BME280;43608;49.486;9.640;2023-04-06T02:04:17;98948.56;;;-3.19;78.58
57779;BME280;43608;49.486;9.640;2023-04-06T02:04:47;98951.41;;;-3.14;78.96
57779;BME280;43608;49.486;9.640;2023-04-06T02:05:19;98941.66;;;-3.19;78.70
57779;BME280;43608;49.486;9.640;2023-04-06T02:05:50;98942.38;;;-3.21;78.83
57779;BME280;43608;49.486;9.640;2023-04-06T02:06:20;98952.94;;;-3.18;78.98
57779;BME280;43608;49.486;9.640;2023-04-06T02:06:51;98959.28;;;-3.13;78.82
57779;BME280;43608;49.486;9.640;2023-04-06T02:07:21;98936.91;;;-3.27;78.83
57779;BME280;43608;49.486;9.640;2023-04-06T02:07:51;98958.22;;;-3.17;78.70
57779;BME280;43608;49.486;9.640;2023-04-06T02:08:22;98960.06;;;-3.14;78.86
57779;BME280;43608;49.486;9.640;2023-04-06T02:08:52;98955.63;;;-3.17;78.85
57779;BME280;43608;49.486;9.640;2023-04-06T02:09:23;98946.69;;;-3.22;78.90
57779;BME280;43608;49.486;9.640;2023-04-06T02:09:54;98936.91;;;-3.27;79.03
57779;BME280;43608;49.486;9.640;2023-04-06T02:10:25;98959.91;;;-3.17;78.97
57779;BME280;43608;49.486;9.640;2023-04-06T02:10:56;98928.69;;;-3.35;79.08
57779;BME280;43608;49.486;9.640;2023-04-06T02:11:26;98945.56;;;-3.27;79.07
57779;BME280;43608;49.486;9.640;2023-04-06T02:11:57;98947.25;;;-3.27;79.21
57779;BME280;43608;49.486;9.640;2023-04-06T02:12:27;98960.72;;;-3.18;78.87
57779;BME280;43608;49.486;9.640;2023-04-06T02:12:57;98948.22;;;-3.25;79.11
57779;BME280;43608;49.486;9.640;2023-04-06T02:13:28;98955.47;;;-3.20;78.94
57779;BME280;43608;49.486;9.640;2023-04-06T02:13:58;98930.56;;;-3.33;79.28
57779;BME280;43608;49.486;9.640;2023-04-06T02:14:31;98950.28;;;-3.20;79.22
57779;BME280;43608;49.486;9.640;2023-04-06T02:15:01;98951.00;;;-3.22;79.19
57779;BME280;43608;49.486;9.640;2023-04-06T02:15:31;98929.44;;;-3.38;78.97
57779;BME280;43608;49.486;9.640;2023-04-06T02:16:02;98949.06;;;-3.26;79.36
57779;BME280;43608;49.486;9.640;2023-04-06T02:16:32;98956.19;;;-3.22;79.19
57779;BME280;43608;49.486;9.640;2023-04-06T02:17:03;98956.97;;;-3.23;79.33
57779;BME280;43608;49.486;9.640;2023-04-06T02:17:33;98953.25;;;-3.28;79.21
57779;BME280;43608;49.486;9.640;2023-04-06T02:18:04;98956.97;;;-3.23;79.39
57779;BME280;43608;49.486;9.640;2023-04-06T02:18:34;98947.06;;;-3.30;79.20
57779;BME280;43608;49.486;9.640;2023-04-06T02:19:05;98953.41;;;-3.25;79.12
57779;BME280;43608;49.486;9.640;2023-04-06T02:19:35;98935.56;;;-3.36;79.62
57779;BME280;43608;49.486;9.640;2023-04-06T02:20:06;98943.44;;;-3.34;79.75
57779;BME280;43608;49.486;9.640;2023-04-06T02:20:37;98949.66;;;-3.30;79.01
57779;BME280;43608;49.486;9.640;2023-04-06T02:21:07;98938.25;;;-3.34;79.31
57779;BME280;43608;49.486;9.640;2023-04-06T02:21:37;98938.16;;;-3.36;79.15
57779;BME280;43608;49.486;9.640;2023-04-06T02:22:09;98956.72;;;-3.28;79.40
57779;BME280;43608;49.486;9.640;2023-04-06T02:22:40;98950.66;;;-3.28;79.10
57779;BME280;43608;49.486;9.640;2023-04-06T02:23:10;98930.88;;;-3.43;79.21
57779;BME280;43608;49.486;9.640;2023-04-06T02:23:41;98945.94;;;-3.36;79.04
57779;BME280;43608;49.486;9.640;2023-04-06T02:24:11;98955.75;;;-3.30;79.21
57779;BME280;43608;49.486;9.640;2023-04-06T02:24:42;98950.56;;;-3.30;79.10
57779;BME280;43608;49.486;9.640;2023-04-06T02:25:12;98944.16;;;-3.37;78.96
57779;BME280;43608;49.486;9.640;2023-04-06T02:25:43;98949.59;;;-3.32;79.23
57779;BME280;43608;49.486;9.640;2023-04-06T02:26:13;98948.63;;;-3.34;79.37
57779;BME280;43608;49.486;9.640;2023-04-06T02:26:44;98945.50;;;-3.43;79.08
57779;BME280;43608;49.486;9.640;2023-04-06T02:27:14;98951.94;;;-3.37;79.25
57779;BME280;43608;49.486;9.640;2023-04-06T02:27:45;98943.91;;;-3.41;79.63
57779;BME280;43608;49.486;9.640;2023-04-06T02:28:15;98947.38;;;-3.41;79.62
57779;BME280;43608;49.486;9.640;2023-04-06T02:28:45;98944.56;;;-3.45;79.76
57779;BME280;43608;49.486;9.640;2023-04-06T02:29:16;98945.63;;;-3.42;79.69
57779;BME280;43608;49.486;9.640;2023-04-06T02:29:46;98952.56;;;-3.41;79.64
57779;BME280;43608;49.486;9.640;2023-04-06T02:30:17;98951.94;;;-3.37;80.06
57779;BME280;43608;49.486;9.640;2023-04-06T02:30:47;98953.38;;;-3.42;79.76
57779;BME280;43608;49.486;9.640;2023-04-06T02:31:17;98946.22;;;-3.46;79.56
57779;BME280;43608;49.486;9.640;2023-04-06T02:31:48;98953.56;;;-3.39;79.64
57779;BME280;43608;49.486;9.640;2023-04-06T02:32:19;98952.56;;;-3.41;79.89
57779;BME280;43608;49.486;9.640;2023-04-06T02:32:49;98947.06;;;-3.47;79.86
57779;BME280;43608;49.486;9.640;2023-04-06T02:33:20;98947.22;;;-3.44;79.73
57779;BME280;43608;49.486;9.640;2023-04-06T02:33:50;98954.19;;;-3.43;79.84
57779;BME280;43608;49.486;9.640;2023-04-06T02:34:20;98954.28;;;-3.41;79.79
57779;BME280;43608;49.486;9.640;2023-04-06T02:34:51;98950.69;;;-3.43;79.84
57779;BME280;43608;49.486;9.640;2023-04-06T02:35:22;98961.16;;;-3.42;79.94
57779;BME280;43608;49.486;9.640;2023-04-06T02:35:52;98948.81;;;-3.46;80.06
57779;BME280;43608;49.486;9.640;2023-04-06T02:36:23;98958.56;;;-3.42;79.86
57779;BME280;43608;49.486;9.640;2023-04-06T02:36:53;98888.00;;;-3.84;79.64
57779;BME280;43608;49.486;9.640;2023-04-06T02:37:24;98948.75;;;-3.47;79.93
57779;BME280;43608;49.486;9.640;2023-04-06T02:37:54;98955.88;;;-3.43;80.00
57779;BME280;43608;49.486;9.640;2023-04-06T02:38:25;98963.56;;;-3.45;80.11
57779;BME280;43608;49.486;9.640;2023-04-06T02:38:55;98945.91;;;-3.52;80.18
57779;BME280;43608;49.486;9.640;2023-04-06T02:39:25;98906.50;;;-3.78;79.63
57779;BME280;43608;49.486;9.640;2023-04-06T02:39:56;98946.00;;;-3.51;79.95
57779;BME280;43608;49.486;9.640;2023-04-06T02:40:26;98945.91;;;-3.52;79.87
57779;BME280;43608;49.486;9.640;2023-04-06T02:40:57;98940.38;;;-3.58;80.10
57779;BME280;43608;49.486;9.640;2023-04-06T02:41:27;98954.66;;;-3.50;79.74
57779;BME280;43608;49.486;9.640;2023-04-06T02:41:57;98926.19;;;-3.65;80.15
57779;BME280;43608;49.486;9.640;2023-04-06T02:42:28;98945.72;;;-3.55;80.08